Time;durP1;ratioP1;P1;durP2;ratioP2;P2;SDS_P1;SDS_P2;PMS_P1;PMS_P2;Temp;Humidity;BMP_temperature;BMP_pressure;BME280_temperature;BME280_humidity;BME280_pressure;Samples;Min_cycle;Max_cycle;Signal;HPM_P1;HPM_P2
2024/01/24 00:01:43;;;;;;;7.47;3.70;;;10.70;99.90;;;;;;5014953;28;20890;-74
2024/01/24 00:04:08;;;;;;;10.77;4.17;;;10.70;99.90;;;;;;5032466;28;20212;-73
2024/01/24 00:06:36;;;;;;;6.27;4.37;;;10.80;99.90;;;;;;5032277;28;20428;-78
2024/01/24 00:09:01;;;;;;;11.17;5.03;;;10.80;99.90;;;;;;5033261;28;20208;-77
2024/01/24 00:11:29;;;;;;;6.20;3.93;;;10.80;99.90;;;;;;5032607;28;20546;-73
2024/01/24 00:13:54;;;;;;;7.47;4.40;;;10.80;99.90;;;;;;5034113;28;20182;-74
2024/01/24 00:16:20;;;;;;;12.13;3.90;;;10.80;99.90;;;;;;5015159;28;20445;-74
2024/01/24 00:18:46;;;;;;;6.90;4.13;;;10.80;99.90;;;;;;5033735;28;20202;-75
2024/01/24 00:21:11;;;;;;;6.00;4.47;;;10.90;99.90;;;;;;5032404;28;20194;-76
2024/01/24 00:23:37;;;;;;;8.17;4.83;;;10.90;99.90;;;;;;5015444;28;20663;-76
2024/01/24 00:26:03;;;;;;;5.90;3.97;;;10.90;99.90;;;;;;5014470;28;20267;-74
2024/01/24 00:28:29;;;;;;;7.03;4.60;;;10.90;99.90;;;;;;5033394;28;20194;-77
2024/01/24 00:30:55;;;;;;;6.77;4.50;;;10.90;99.90;;;;;;5014957;28;20786;-75
2024/01/24 00:33:21;;;;;;;13.47;4.83;;;11.00;99.90;;;;;;4999153;28;20532;-74
2024/01/24 00:35:46;;;;;;;7.30;5.40;;;11.00;99.90;;;;;;5032841;28;20554;-75
2024/01/24 00:38:12;;;;;;;10.63;4.57;;;11.00;99.90;;;;;;5033448;28;20500;-74
2024/01/24 00:40:38;;;;;;;6.77;4.50;;;10.90;99.90;;;;;;5037755;28;20193;-76
2024/01/24 00:43:05;;;;;;;7.10;4.57;;;11.00;99.90;;;;;;5036505;28;20186;-76
2024/01/24 00:45:30;;;;;;;6.53;4.60;;;11.00;99.90;;;;;;5035444;28;20269;-76
2024/01/24 00:47:56;;;;;;;8.40;4.50;;;11.00;99.90;;;;;;5036055;28;20528;-76
2024/01/24 00:50:22;;;;;;;7.03;4.10;;;11.10;99.90;;;;;;5036107;28;20221;-75
2024/01/24 00:52:51;;;;;;;8.43;4.60;;;11.00;99.90;;;;;;5032035;28;20247;-74
2024/01/24 00:55:21;;;;;;;7.53;4.50;;;11.10;99.90;;;;;;5016839;28;20209;-74
2024/01/24 00:57:46;;;;;;;5.00;4.10;;;11.20;99.90;;;;;;5036302;28;20865;-75
2024/01/24 01:00:13;;;;;;;8.13;4.10;;;11.20;99.90;;;;;;5001632;28;20461;-76
2024/01/24 01:02:38;;;;;;;9.00;4.30;;;11.20;99.90;;;;;;5036728;28;20527;-76
2024/01/24 01:05:04;;;;;;;6.90;4.20;;;11.20;99.90;;;;;;5034820;28;20495;-74
2024/01/24 01:07:30;;;;;;;5.47;3.57;;;11.20;99.90;;;;;;5036409;28;20190;-74
2024/01/24 01:09:56;;;;;;;8.20;4.13;;;11.20;99.90;;;;;;5018298;28;20436;-75
2024/01/24 01:12:21;;;;;;;4.80;4.10;;;11.30;99.90;;;;;;5017952;28;20774;-75
2024/01/24 01:14:47;;;;;;;4.40;3.43;;;11.30;99.90;;;;;;5017694;28;20185;-75
2024/01/24 01:17:13;;;;;;;4.97;4.40;;;11.30;99.90;;;;;;5035372;28;20516;-75
2024/01/24 01:19:39;;;;;;;6.23;4.03;;;11.40;99.90;;;;;;5036264;28;20429;-74
2024/01/24 01:22:05;;;;;;;4.33;3.50;;;11.40;99.90;;;;;;5035339;28;20189;-75
2024/01/24 01:24:30;;;;;;;4.80;3.93;;;11.40;99.90;;;;;;5036124;28;20186;-76
2024/01/24 01:26:56;;;;;;;6.20;4.10;;;11.40;99.90;;;;;;5035060;28;20214;-75
2024/01/24 01:29:22;;;;;;;8.70;4.50;;;11.50;99.90;;;;;;5036558;28;20190;-76
2024/01/24 01:31:47;;;;;;;6.00;3.60;;;11.50;99.90;;;;;;5003121;28;20225;-74
2024/01/24 01:34:13;;;;;;;7.57;4.27;;;11.50;99.90;;;;;;5035515;28;20226;-76
2024/01/24 01:36:39;;;;;;;6.87;3.53;;;11.50;99.90;;;;;;5035495;28;20607;-75
2024/01/24 01:39:04;;;;;;;5.13;3.03;;;11.60;99.90;;;;;;5035441;28;20186;-75
2024/01/24 01:41:30;;;;;;;5.90;3.30;;;11.60;99.90;;;;;;5035989;28;20186;-76
2024/01/24 01:43:56;;;;;;;4.27;3.87;;;11.60;99.90;;;;;;5017469;28;20202;-76
2024/01/24 01:46:22;;;;;;;6.23;3.37;;;11.60;99.90;;;;;;5035633;28;20182;-76
2024/01/24 01:48:49;;;;;;;11.20;3.70;;;11.60;99.90;;;;;;5035467;28;20186;-76
2024/01/24 01:51:19;;;;;;;7.40;3.90;;;11.60;99.90;;;;;;5016668;28;20475;-76
2024/01/24 01:53:47;;;;;;;6.57;3.13;;;11.70;99.90;;;;;;5035430;28;21516;-77
2024/01/24 01:56:17;;;;;;;4.87;3.10;;;11.70;99.90;;;;;;5033935;28;20426;-76
2024/01/24 01:58:44;;;;;;;3.37;2.80;;;11.80;99.90;;;;;;5035155;28;20425;-76
2024/01/24 02:01:10;;;;;;;7.10;2.83;;;11.80;99.90;;;;;;5034831;28;20427;-76
2024/01/24 02:03:37;;;;;;;4.30;2.80;;;11.80;99.90;;;;;;5017829;28;20973;-76
2024/01/24 02:06:03;;;;;;;4.30;3.17;;;11.80;99.90;;;;;;5035035;28;21398;-74
2024/01/24 02:08:32;;;;;;;3.53;2.80;;;11.80;99.90;;;;;;5034958;28;20457;-76
2024/01/24 02:10:58;;;;;;;7.67;3.33;;;11.90;99.90;;;;;;5034338;28;20543;-77
2024/01/24 02:13:30;;;;;;;3.67;2.83;;;11.90;99.90;;;;;;5034985;28;20417;-77
2024/01/24 02:15:55;;;;;;;3.43;2.57;;;11.90;99.90;;;;;;5033927;28;20445;-76
2024/01/24 02:18:21;;;;;;;4.03;2.60;;;11.80;99.90;;;;;;5035107;28;20452;-76
2024/01/24 02:20:47;;;;;;;3.57;2.70;;;11.80;99.90;;;;;;5034789;28;20184;-74
2024/01/24 02:23:17;;;;;;;8.27;2.50;;;11.80;99.90;;;;;;5033518;28;20202;-76
2024/01/24 02:25:42;;;;;;;2.93;2.03;;;11.80;99.90;;;;;;5034906;28;20993;-76
2024/01/24 02:28:08;;;;;;;4.10;2.40;;;11.80;99.90;;;;;;5033749;28;20428;-74
2024/01/24 02:30:34;;;;;;;5.03;2.37;;;11.80;99.90;;;;;;5016976;28;20267;-77
2024/01/24 02:33:00;;;;;;;8.00;3.13;;;11.80;99.90;;;;;;5034527;28;20202;-75
2024/01/24 02:35:27;;;;;;;4.67;2.30;;;11.80;99.90;;;;;;5034644;28;20189;-76
2024/01/24 02:37:53;;;;;;;3.10;2.00;;;11.80;99.90;;;;;;5034287;28;20204;-76
2024/01/24 02:40:19;;;;;;;2.10;1.90;;;11.90;99.90;;;;;;5016209;28;20853;-77
2024/01/24 02:42:44;;;;;;;3.30;1.93;;;11.90;99.90;;;;;;5034756;28;20483;-76
2024/01/24 02:45:10;;;;;;;2.10;1.57;;;11.90;99.90;;;;;;5016150;28;20921;-76
2024/01/24 02:47:36;;;;;;;2.73;1.97;;;12.00;99.90;;;;;;5034590;28;20211;-76
2024/01/24 02:50:03;;;;;;;1.73;1.43;;;12.00;99.90;;;;;;5033942;28;20189;-75
2024/01/24 02:52:29;;;;;;;1.93;1.50;;;12.00;99.90;;;;;;5033831;28;20989;-76
2024/01/24 02:54:55;;;;;;;3.57;1.30;;;12.10;99.90;;;;;;5016180;28;20444;-76
2024/01/24 02:57:21;;;;;;;1.90;1.40;;;12.10;99.90;;;;;;5001376;28;20433;-76
2024/01/24 02:59:47;;;;;;;2.53;1.77;;;12.20;99.90;;;;;;5034238;28;20523;-76
2024/01/24 03:02:12;;;;;;;2.70;1.50;;;12.20;99.90;;;;;;5034209;28;20539;-76
2024/01/24 03:04:38;;;;;;;2.73;1.50;;;12.20;99.90;;;;;;5034210;28;20194;-76
2024/01/24 03:07:04;;;;;;;1.50;1.40;;;12.20;99.90;;;;;;5032326;28;20178;-76
2024/01/24 03:09:29;;;;;;;4.23;1.50;;;12.20;99.90;;;;;;5017254;28;20196;-76
2024/01/24 03:11:55;;;;;;;1.50;1.30;;;12.20;99.90;;;;;;5034001;28;20575;-76
2024/01/24 03:14:21;;;;;;;2.90;1.47;;;12.20;99.90;;;;;;5034315;28;20195;-76
2024/01/24 03:16:47;;;;;;;2.40;1.40;;;12.20;99.90;;;;;;5033215;28;20198;-77
2024/01/24 03:19:13;;;;;;;1.30;1.10;;;12.30;99.90;;;;;;5034167;28;20443;-77
2024/01/24 03:21:40;;;;;;;1.40;1.30;;;12.30;99.90;;;;;;5001092;28;20793;-75
2024/01/24 03:24:07;;;;;;;1.93;1.10;;;12.40;99.90;;;;;;5033611;28;20498;-75
2024/01/24 03:26:32;;;;;;;1.17;1.07;;;12.40;99.90;;;;;;5034001;28;21268;-75
2024/01/24 03:28:58;;;;;;;1.70;1.07;;;12.40;99.90;;;;;;5033826;28;20652;-77
2024/01/24 03:31:24;;;;;;;1.80;1.27;;;12.40;99.90;;;;;;5034346;28;20244;-76
2024/01/24 03:33:49;;;;;;;1.37;1.27;;;12.40;99.90;;;;;;5033682;28;20196;-77
2024/01/24 03:36:15;;;;;;;0.90;0.90;;;12.40;99.90;;;;;;5033345;28;20206;-76
2024/01/24 03:38:42;;;;;;;1.60;1.07;;;12.40;99.90;;;;;;5033681;28;20185;-76
2024/01/24 03:41:08;;;;;;;1.10;0.90;;;12.40;99.90;;;;;;5033018;28;20241;-77
2024/01/24 03:43:33;;;;;;;0.63;0.63;;;12.40;99.90;;;;;;5016189;28;20432;-76
2024/01/24 03:45:59;;;;;;;1.40;1.00;;;12.40;99.90;;;;;;5032888;28;20648;-77
2024/01/24 03:48:25;;;;;;;0.90;0.80;;;12.40;99.90;;;;;;5015949;28;20273;-77
2024/01/24 03:50:51;;;;;;;2.10;0.93;;;12.40;99.90;;;;;;5032753;28;20609;-75
2024/01/24 03:53:16;;;;;;;1.60;0.80;;;12.40;99.90;;;;;;5033751;28;20190;-75
2024/01/24 03:55:42;;;;;;;1.00;0.90;;;12.30;99.90;;;;;;5033089;28;20228;-76
2024/01/24 03:58:08;;;;;;;1.00;0.90;;;12.40;99.90;;;;;;5033420;28;20186;-77
2024/01/24 04:00:33;;;;;;;0.80;0.80;;;12.40;99.90;;;;;;5015478;28;20237;-76
2024/01/24 04:02:59;;;;;;;4.73;1.00;;;12.40;99.90;;;;;;5014682;28;20193;-77
2024/01/24 04:05:25;;;;;;;0.60;0.53;;;12.30;99.90;;;;;;5032820;28;20193;-76
2024/01/24 04:07:51;;;;;;;1.03;1.00;;;12.30;99.90;;;;;;5032453;28;20169;-75
2024/01/24 04:10:17;;;;;;;1.20;0.70;;;12.30;99.90;;;;;;5033547;28;20174;-77
2024/01/24 04:12:42;;;;;;;3.43;0.53;;;12.30;99.90;;;;;;5014546;28;20283;-76
2024/01/24 04:15:08;;;;;;;1.07;0.60;;;12.20;99.90;;;;;;5014485;28;20453;-75
2024/01/24 04:17:34;;;;;;;0.67;0.47;;;12.20;99.90;;;;;;5033443;28;20334;-75
2024/01/24 04:20:00;;;;;;;0.70;0.60;;;12.20;99.90;;;;;;5031704;28;20923;-77
2024/01/24 04:22:26;;;;;;;0.80;0.80;;;12.20;99.90;;;;;;5000771;28;20822;-77
2024/01/24 04:24:51;;;;;;;1.93;1.00;;;12.20;99.90;;;;;;5015824;28;20668;-77
2024/01/24 04:27:18;;;;;;;1.70;1.60;;;12.10;99.90;;;;;;5032476;28;20186;-77
2024/01/24 04:29:43;;;;;;;2.40;2.20;;;12.10;99.90;;;;;;5032147;28;20185;-75
2024/01/24 04:32:09;;;;;;;3.07;2.20;;;12.10;99.90;;;;;;5032611;28;20469;-75
2024/01/24 04:34:35;;;;;;;3.37;3.07;;;12.10;99.90;;;;;;5032232;28;20178;-75
2024/01/24 04:37:02;;;;;;;2.73;2.50;;;12.10;99.90;;;;;;5032973;28;20242;-77
2024/01/24 04:39:27;;;;;;;2.57;2.23;;;12.00;99.90;;;;;;5014956;28;20494;-76
2024/01/24 04:41:53;;;;;;;4.07;2.23;;;12.00;99.90;;;;;;5032452;28;20432;-77
2024/01/24 04:44:19;;;;;;;2.00;1.90;;;12.00;99.90;;;;;;5032394;28;20255;-76
2024/01/24 04:46:45;;;;;;;2.87;1.90;;;12.00;99.90;;;;;;5030890;28;20177;-76
2024/01/24 04:49:11;;;;;;;2.03;1.93;;;11.90;99.90;;;;;;5032570;28;20837;-77
2024/01/24 04:51:37;;;;;;;2.03;1.93;;;11.90;99.90;;;;;;5031570;28;20217;-76
2024/01/24 04:54:04;;;;;;;1.50;1.40;;;11.90;99.90;;;;;;5030627;28;20515;-75
2024/01/24 04:56:29;;;;;;;1.40;1.27;;;11.90;99.90;;;;;;5015092;28;20433;-77
2024/01/24 04:58:55;;;;;;;1.30;1.00;;;11.90;99.90;;;;;;5015029;28;20483;-77
2024/01/24 05:01:21;;;;;;;1.80;1.00;;;11.90;99.90;;;;;;5031949;28;20668;-76
2024/01/24 05:03:46;;;;;;;2.67;1.27;;;11.90;99.90;;;;;;5031533;28;20190;-76
2024/01/24 05:06:12;;;;;;;2.17;0.93;;;11.90;99.90;;;;;;5032455;28;20186;-76
2024/01/24 05:08:38;;;;;;;1.93;0.93;;;11.80;99.90;;;;;;5014322;28;20713;-76
2024/01/24 05:11:04;;;;;;;0.67;0.60;;;11.80;99.90;;;;;;5031696;28;20320;-77
2024/01/24 05:13:30;;;;;;;1.27;0.70;;;11.80;99.90;;;;;;5031178;28;20511;-74
2024/01/24 05:15:56;;;;;;;1.57;0.70;;;11.80;99.90;;;;;;5030748;28;20536;-75
2024/01/24 05:18:22;;;;;;;1.53;0.77;;;11.80;99.90;;;;;;5014043;28;21008;-75
2024/01/24 05:20:47;;;;;;;3.37;1.20;;;11.80;99.90;;;;;;5032126;28;20198;-76
2024/01/24 05:23:13;;;;;;;1.90;1.03;;;11.80;99.90;;;;;;5017149;28;20213;-76
2024/01/24 05:25:40;;;;;;;1.90;1.10;;;11.80;99.90;;;;;;5022861;28;20251;-77
2024/01/24 05:28:05;;;;;;;1.67;0.93;;;11.80;99.90;;;;;;5042679;28;20182;-76
2024/01/24 05:30:31;;;;;;;2.97;0.93;;;11.80;99.90;;;;;;5039272;28;20428;-76
2024/01/24 05:32:57;;;;;;;3.27;1.00;;;11.80;99.90;;;;;;5036482;28;20425;-77
2024/01/24 05:35:23;;;;;;;3.87;1.37;;;11.80;99.90;;;;;;5036608;28;20707;-77
2024/01/24 05:37:49;;;;;;;6.30;1.83;;;11.80;99.90;;;;;;5035525;28;20475;-75
2024/01/24 05:40:15;;;;;;;7.90;1.90;;;11.80;99.90;;;;;;5037088;28;20460;-75
2024/01/24 05:42:41;;;;;;;6.53;1.93;;;11.70;99.90;;;;;;5034690;28;20428;-76
2024/01/24 05:45:07;;;;;;;5.07;1.37;;;11.70;99.90;;;;;;5036501;28;20429;-75
2024/01/24 05:47:32;;;;;;;5.30;1.67;;;11.60;99.90;;;;;;5018234;28;20708;-76
2024/01/24 05:50:02;;;;;;;5.57;1.53;;;11.70;99.90;;;;;;5035953;28;20432;-76
2024/01/24 05:52:28;;;;;;;3.60;1.80;;;11.70;99.90;;;;;;5035820;28;20206;-75
2024/01/24 05:54:53;;;;;;;9.07;1.93;;;11.70;99.90;;;;;;5035752;28;20428;-75
2024/01/24 05:57:21;;;;;;;4.07;1.60;;;11.60;99.90;;;;;;5034998;28;20456;-76
2024/01/24 05:59:47;;;;;;;9.50;2.27;;;11.60;99.90;;;;;;5016288;28;20522;-77
2024/01/24 06:02:13;;;;;;;10.73;2.40;;;11.60;99.90;;;;;;5035135;28;20451;-76
2024/01/24 06:04:39;;;;;;;10.30;2.20;;;11.60;99.90;;;;;;5032768;28;20989;-75
2024/01/24 06:07:06;;;;;;;9.33;2.10;;;11.60;99.90;;;;;;5035670;28;20224;-78
2024/01/24 06:09:32;;;;;;;8.80;2.20;;;11.60;99.90;;;;;;5034780;28;20835;-77
2024/01/24 06:11:58;;;;;;;6.07;1.73;;;11.60;99.90;;;;;;5017635;28;20539;-76
2024/01/24 06:14:24;;;;;;;6.83;2.00;;;11.60;99.90;;;;;;5034091;28;20204;-77
2024/01/24 06:16:50;;;;;;;8.53;2.60;;;11.60;99.90;;;;;;5034019;28;20923;-76
2024/01/24 06:19:16;;;;;;;8.70;3.03;;;11.60;99.90;;;;;;5035741;28;20187;-76
2024/01/24 06:21:41;;;;;;;8.20;2.43;;;11.60;99.90;;;;;;5033418;28;20185;-75
2024/01/24 06:24:07;;;;;;;13.57;2.70;;;11.60;99.90;;;;;;5035507;28;20248;-77
2024/01/24 06:26:33;;;;;;;9.97;2.37;;;11.60;99.90;;;;;;5034431;28;20544;-75
2024/01/24 06:28:58;;;;;;;13.43;2.57;;;11.60;99.90;;;;;;5035471;28;20178;-78
2024/01/24 06:31:24;;;;;;;14.50;2.93;;;11.60;99.90;;;;;;5035042;28;20974;-76
2024/01/24 06:33:50;;;;;;;4.70;2.00;;;11.60;99.90;;;;;;5014197;28;20844;-77
2024/01/24 06:36:16;;;;;;;10.70;3.03;;;11.60;99.90;;;;;;5032947;28;20190;-78
2024/01/24 06:38:42;;;;;;;11.97;3.33;;;11.60;99.90;;;;;;5015370;28;20794;-77
2024/01/24 06:41:07;;;;;;;9.00;2.73;;;11.60;99.90;;;;;;5035297;28;20575;-78
2024/01/24 06:43:35;;;;;;;8.47;2.00;;;11.60;99.90;;;;;;5034460;28;20268;-75
2024/01/24 06:46:02;;;;;;;12.53;3.13;;;11.60;99.90;;;;;;5034133;28;20183;-78
2024/01/24 06:48:28;;;;;;;14.40;3.03;;;11.50;99.90;;;;;;5034145;28;20512;-76
2024/01/24 06:50:54;;;;;;;11.33;2.40;;;11.60;99.90;;;;;;5033563;28;21058;-76
2024/01/24 06:53:20;;;;;;;9.53;2.77;;;11.50;99.90;;;;;;5034502;28;20943;-77
2024/01/24 06:55:46;;;;;;;11.20;2.77;;;11.50;99.90;;;;;;5034587;28;20440;-74
2024/01/24 06:58:12;;;;;;;6.70;2.33;;;11.50;99.90;;;;;;5033970;28;20428;-75
2024/01/24 07:00:38;;;;;;;8.57;2.50;;;11.50;99.90;;;;;;5034006;28;20463;-74
2024/01/24 07:03:04;;;;;;;12.47;3.17;;;11.50;99.90;;;;;;5034525;28;20194;-76
2024/01/24 07:05:29;;;;;;;11.33;3.60;;;11.60;99.90;;;;;;5030615;28;20533;-75
2024/01/24 07:07:57;;;;;;;11.27;2.70;;;11.60;99.90;;;;;;5034123;28;20436;-75
2024/01/24 07:10:23;;;;;;;17.00;3.50;;;11.50;99.90;;;;;;5033558;28;20181;-75
2024/01/24 07:12:49;;;;;;;7.30;2.83;;;11.50;99.90;;;;;;5011289;28;20556;-76
2024/01/24 07:15:18;;;;;;;7.00;2.40;;;11.50;99.90;;;;;;5028984;28;20550;-74
2024/01/24 07:17:44;;;;;;;10.77;2.73;;;11.50;99.90;;;;;;5013976;28;20435;-73
2024/01/24 07:20:11;;;;;;;8.67;2.83;;;11.50;99.90;;;;;;5029816;28;20436;-75
2024/01/24 07:22:38;;;;;;;12.47;3.23;;;11.50;99.90;;;;;;5030304;28;20435;-74
2024/01/24 07:25:07;;;;;;;16.70;4.10;;;11.50;99.90;;;;;;5030243;28;20437;-73
2024/01/24 07:27:34;;;;;;;9.80;3.07;;;11.50;99.90;;;;;;5030523;28;20476;-73
2024/01/24 07:30:03;;;;;;;14.10;3.60;;;11.50;99.90;;;;;;5030881;28;20437;-74
2024/01/24 07:32:30;;;;;;;13.27;3.07;;;11.50;99.90;;;;;;5032151;28;20488;-72
2024/01/24 07:34:55;;;;;;;13.80;3.77;;;11.40;99.90;;;;;;5033108;28;20832;-75
2024/01/24 07:37:21;;;;;;;13.97;4.40;;;11.50;99.90;;;;;;5033203;28;21443;-72
2024/01/24 07:39:47;;;;;;;18.27;3.77;;;11.40;99.90;;;;;;5031968;28;20201;-74
2024/01/24 07:42:13;;;;;;;10.43;3.50;;;11.40;99.90;;;;;;5015164;28;20284;-74
2024/01/24 07:44:40;;;;;;;18.00;4.43;;;11.40;99.90;;;;;;5012117;28;20178;-72
2024/01/24 07:47:06;;;;;;;16.70;5.13;;;11.30;99.90;;;;;;5033734;28;20828;-72
2024/01/24 07:49:33;;;;;;;15.47;3.60;;;11.30;99.90;;;;;;5032834;28;20516;-73
2024/01/24 07:52:00;;;;;;;10.43;3.67;;;11.30;99.90;;;;;;5033603;28;20571;-72
2024/01/24 07:54:25;;;;;;;20.80;4.17;;;11.20;99.90;;;;;;5033702;28;20867;-73
2024/01/24 07:56:53;;;;;;;17.60;3.97;;;11.20;99.90;;;;;;5033072;28;20471;-74
2024/01/24 07:59:19;;;;;;;11.33;3.70;;;11.20;99.90;;;;;;5033069;28;20186;-74
2024/01/24 08:01:48;;;;;;;13.87;4.07;;;11.20;99.90;;;;;;5033235;28;20433;-72
2024/01/24 08:04:14;;;;;;;21.83;6.00;;;11.20;99.90;;;;;;5033153;28;20421;-74
2024/01/24 08:06:41;;;;;;;17.43;4.80;;;11.20;99.90;;;;;;5032873;28;20425;-73
2024/01/24 08:09:07;;;;;;;18.97;4.20;;;11.10;99.90;;;;;;5034164;28;20797;-72
2024/01/24 08:11:33;;;;;;;19.07;4.43;;;11.20;99.90;;;;;;5032308;28;20554;-73
2024/01/24 08:13:59;;;;;;;18.83;4.07;;;11.10;99.90;;;;;;5033958;28;21081;-72
2024/01/24 08:16:24;;;;;;;19.07;4.50;;;11.10;99.90;;;;;;5033046;28;20252;-73
2024/01/24 08:18:52;;;;;;;15.83;4.33;;;11.10;99.90;;;;;;5033270;28;20617;-72
2024/01/24 08:21:18;;;;;;;16.23;4.47;;;11.10;99.90;;;;;;5032694;28;20193;-74
2024/01/24 08:23:44;;;;;;;19.17;5.73;;;11.00;99.90;;;;;;5014963;28;21009;-72
2024/01/24 08:26:10;;;;;;;19.33;4.90;;;11.10;99.90;;;;;;5032934;28;20429;-72
2024/01/24 08:28:35;;;;;;;12.80;5.77;;;11.00;99.90;;;;;;5015111;28;20181;-73
2024/01/24 08:31:01;;;;;;;23.80;4.80;;;11.10;99.90;;;;;;5032899;28;20664;-73
2024/01/24 08:33:27;;;;;;;15.00;3.40;;;11.10;99.90;;;;;;5032958;28;20255;-73
2024/01/24 08:35:52;;;;;;;16.10;4.10;;;11.10;99.90;;;;;;5032557;28;20181;-72
2024/01/24 08:38:18;;;;;;;17.37;4.47;;;11.10;99.90;;;;;;5033288;28;20194;-73
2024/01/24 08:40:44;;;;;;;19.00;4.70;;;11.10;99.90;;;;;;5031277;28;20185;-71
2024/01/24 08:43:09;;;;;;;15.77;3.87;;;11.10;99.90;;;;;;5033126;28;20185;-74
2024/01/24 08:45:35;;;;;;;18.67;3.93;;;11.20;99.90;;;;;;5031380;28;20188;-74
2024/01/24 08:48:01;;;;;;;17.27;4.40;;;11.20;99.90;;;;;;5032894;28;20578;-72
2024/01/24 08:50:26;;;;;;;15.97;3.90;;;11.40;99.90;;;;;;5032432;28;20260;-74
2024/01/24 08:52:52;;;;;;;16.17;5.00;;;11.50;99.90;;;;;;5032164;28;20214;-74
2024/01/24 08:55:18;;;;;;;13.97;4.07;;;11.60;99.90;;;;;;5031348;28;20711;-72
2024/01/24 08:57:44;;;;;;;15.40;4.80;;;11.70;99.90;;;;;;5031098;28;21006;-73
2024/01/24 09:00:13;;;;;;;17.67;4.57;;;11.80;99.90;;;;;;5034798;28;20463;-72
2024/01/24 09:02:39;;;;;;;21.40;4.87;;;11.80;99.90;;;;;;5034090;28;20182;-71
2024/01/24 09:05:05;;;;;;;13.33;4.17;;;11.80;99.90;;;;;;5035258;28;20431;-74
2024/01/24 09:07:31;;;;;;;16.23;4.37;;;11.80;99.90;;;;;;5034982;28;20437;-73
2024/01/24 09:09:57;;;;;;;15.67;4.83;;;11.70;99.90;;;;;;5018997;28;20430;-72
2024/01/24 09:12:23;;;;;;;18.90;4.60;;;11.70;99.90;;;;;;5017232;28;20522;-73
2024/01/24 09:14:49;;;;;;;15.40;3.97;;;11.70;99.90;;;;;;5036348;28;20824;-72
2024/01/24 09:17:17;;;;;;;13.20;4.70;;;11.60;99.90;;;;;;5036035;28;20436;-72
2024/01/24 09:19:44;;;;;;;16.20;4.73;;;11.50;99.90;;;;;;5035868;28;21042;-73
2024/01/24 09:22:10;;;;;;;15.83;4.63;;;11.50;99.90;;;;;;5035607;28;20920;-72
2024/01/24 09:24:36;;;;;;;17.83;5.20;;;11.40;99.90;;;;;;5035938;28;21237;-72
2024/01/24 09:27:03;;;;;;;20.17;4.97;;;11.40;99.90;;;;;;5035555;28;20429;-73
2024/01/24 09:29:29;;;;;;;13.23;4.87;;;11.40;99.90;;;;;;5034905;28;20429;-72
2024/01/24 09:31:54;;;;;;;16.53;4.37;;;11.30;99.90;;;;;;5035743;28;20474;-73
2024/01/24 09:34:20;;;;;;;18.37;5.43;;;11.30;99.90;;;;;;5035575;28;20186;-72
2024/01/24 09:36:47;;;;;;;22.73;5.67;;;11.30;99.90;;;;;;5035890;28;20185;-72
2024/01/24 09:39:12;;;;;;;15.13;5.03;;;11.30;99.90;;;;;;5035910;28;20429;-72
2024/01/24 09:41:42;;;;;;;19.73;4.30;;;11.20;99.90;;;;;;5035424;28;20954;-73
2024/01/24 09:44:09;;;;;;;23.70;5.10;;;11.20;99.90;;;;;;5020352;28;20589;-72
2024/01/24 09:46:40;;;;;;;15.87;4.60;;;11.20;99.90;;;;;;5034167;28;20424;-74
2024/01/24 09:49:06;;;;;;;17.90;4.60;;;11.20;99.90;;;;;;5034919;28;20950;-73
2024/01/24 09:51:33;;;;;;;18.60;5.30;;;11.20;99.90;;;;;;5016691;28;20465;-73
2024/01/24 09:54:08;;;;;;;18.53;4.73;;;11.20;99.90;;;;;;5035187;28;20517;-72
2024/01/24 09:56:38;;;;;;;24.13;6.10;;;11.20;99.90;;;;;;5031948;28;20523;-74
2024/01/24 09:59:04;;;;;;;20.60;5.60;;;11.20;99.90;;;;;;5034891;28;20523;-73
2024/01/24 10:01:33;;;;;;;16.70;4.07;;;11.20;99.90;;;;;;5017244;28;20433;-72
2024/01/24 10:04:00;;;;;;;18.00;5.37;;;11.20;99.90;;;;;;5035143;28;20425;-73
2024/01/24 10:06:27;;;;;;;19.67;4.73;;;11.20;99.90;;;;;;5034650;28;20432;-73
2024/01/24 10:08:57;;;;;;;20.50;5.33;;;11.20;99.90;;;;;;5035507;28;20429;-73
2024/01/24 10:11:24;;;;;;;19.13;5.17;;;11.20;99.90;;;;;;5031670;28;20542;-72
2024/01/24 10:13:50;;;;;;;26.50;5.60;;;11.20;99.90;;;;;;5034558;28;20463;-73
2024/01/24 10:16:18;;;;;;;19.40;5.23;;;11.10;99.90;;;;;;5001868;28;20441;-73
2024/01/24 10:18:45;;;;;;;25.33;6.70;;;11.10;99.90;;;;;;5035124;28;20190;-72
2024/01/24 10:21:13;;;;;;;21.57;5.40;;;11.10;99.90;;;;;;5034522;28;20424;-72
2024/01/24 10:23:40;;;;;;;19.70;5.87;;;11.10;99.90;;;;;;5034655;28;20586;-73
2024/01/24 10:26:05;;;;;;;17.60;5.07;;;11.10;99.90;;;;;;5034022;28;20424;-73
2024/01/24 10:28:32;;;;;;;21.80;4.60;;;11.10;99.90;;;;;;5034676;28;20421;-72
2024/01/24 10:30:57;;;;;;;19.00;4.50;;;11.10;99.90;;;;;;5035257;28;20271;-71
2024/01/24 10:33:23;;;;;;;20.10;4.90;;;11.10;99.90;;;;;;5034109;28;20888;-73
2024/01/24 10:35:49;;;;;;;14.07;4.63;;;11.10;99.90;;;;;;5033923;28;20194;-72
2024/01/24 10:38:20;;;;;;;13.90;4.13;;;11.10;99.90;;;;;;5034843;28;20178;-72
2024/01/24 10:40:48;;;;;;;18.80;5.67;;;11.10;99.90;;;;;;5034853;28;20443;-73
2024/01/24 10:43:19;;;;;;;11.40;4.50;;;11.10;99.90;;;;;;5034421;28;20425;-72
2024/01/24 10:45:45;;;;;;;20.63;4.57;;;11.10;99.90;;;;;;5034332;28;20431;-72
2024/01/24 10:48:11;;;;;;;26.23;6.20;;;11.10;99.90;;;;;;5017086;28;20421;-72
2024/01/24 10:50:39;;;;;;;32.13;6.27;;;11.10;99.90;;;;;;5034660;28;20458;-73
2024/01/24 10:53:05;;;;;;;19.20;4.93;;;11.00;99.90;;;;;;5033859;28;20434;-71
2024/01/24 10:55:33;;;;;;;23.87;5.93;;;11.00;99.90;;;;;;5033872;28;20478;-72
2024/01/24 10:57:59;;;;;;;19.50;5.03;;;11.10;99.90;;;;;;5035470;28;20497;-73
2024/01/24 11:00:29;;;;;;;13.70;4.30;;;11.00;99.90;;;;;;5033548;28;20417;-71
2024/01/24 11:02:56;;;;;;;18.87;4.40;;;11.10;99.90;;;;;;5033965;28;20223;-72
2024/01/24 11:05:30;;;;;;;21.17;4.77;;;11.10;99.90;;;;;;5033710;28;21173;-73
2024/01/24 11:08:08;;;;;;;16.57;4.80;;;11.10;99.90;;;;;;5034310;28;20423;-72
2024/01/24 11:10:37;;;;;;;25.67;5.43;;;11.10;99.90;;;;;;5015588;28;20471;-72
2024/01/24 11:13:07;;;;;;;19.73;5.63;;;11.00;99.90;;;;;;5034089;28;20468;-72
2024/01/24 11:15:33;;;;;;;14.47;4.07;;;11.00;99.90;;;;;;5033006;28;20946;-71
2024/01/24 11:18:17;;;;;;;13.67;4.20;;;11.00;99.90;;;;;;5033971;28;20532;-72
2024/01/24 11:20:49;;;;;;;17.93;5.37;;;11.10;99.90;;;;;;5034343;28;20425;-72
2024/01/24 11:23:35;;;;;;;13.90;4.50;;;11.00;99.90;;;;;;5032396;28;20421;-73
2024/01/24 11:26:01;;;;;;;21.40;4.80;;;11.00;99.90;;;;;;5033317;28;20427;-73
2024/01/24 11:28:27;;;;;;;22.33;5.93;;;11.00;99.90;;;;;;5033537;28;20481;-72
2024/01/24 11:30:52;;;;;;;19.67;5.07;;;11.00;99.90;;;;;;5016456;28;20428;-73
2024/01/24 11:33:19;;;;;;;27.53;5.40;;;11.00;99.90;;;;;;5032978;28;20189;-73
2024/01/24 11:35:50;;;;;;;24.07;6.70;;;11.00;99.90;;;;;;5033975;28;20185;-73
2024/01/24 11:38:22;;;;;;;12.77;4.27;;;10.90;99.90;;;;;;5032413;28;20434;-72
2024/01/24 11:40:51;;;;;;;22.57;4.90;;;11.00;99.90;;;;;;5034075;28;20425;-73
2024/01/24 11:43:26;;;;;;;22.57;5.23;;;11.00;99.90;;;;;;5032264;28;20544;-73
2024/01/24 11:45:56;;;;;;;18.77;5.13;;;11.00;99.90;;;;;;5000436;28;20918;-72
2024/01/24 11:48:24;;;;;;;20.53;5.00;;;11.00;99.90;;;;;;5032377;28;20781;-73
2024/01/24 11:50:57;;;;;;;21.20;5.53;;;11.00;99.90;;;;;;5033968;28;20516;-72
2024/01/24 11:53:23;;;;;;;18.13;4.20;;;11.00;99.90;;;;;;4998209;28;20975;-71
2024/01/24 11:56:02;;;;;;;14.70;4.20;;;11.00;99.90;;;;;;5016123;28;20781;-72
2024/01/24 11:58:28;;;;;;;16.97;4.63;;;11.00;99.90;;;;;;5032638;28;20428;-73
2024/01/24 12:01:06;;;;;;;17.17;4.60;;;11.00;99.90;;;;;;5033958;28;20982;-72
2024/01/24 12:03:32;;;;;;;18.63;5.03;;;11.00;99.90;;;;;;5032865;28;20794;-72
2024/01/24 12:05:58;;;;;;;13.53;4.97;;;11.00;99.90;;;;;;5033736;28;20425;-73
2024/01/24 12:08:24;;;;;;;15.97;3.90;;;10.90;99.90;;;;;;5014521;28;20461;-73
2024/01/24 12:10:50;;;;;;;16.80;5.37;;;11.00;99.90;;;;;;5032411;28;20420;-73
2024/01/24 12:13:17;;;;;;;20.47;4.13;;;11.00;99.90;;;;;;5014446;28;20489;-73
2024/01/24 12:15:44;;;;;;;17.07;4.67;;;11.00;99.90;;;;;;5032979;28;20572;-72
2024/01/24 12:18:12;;;;;;;18.50;4.80;;;11.00;99.90;;;;;;5032422;28;20428;-73
2024/01/24 12:20:38;;;;;;;13.80;4.23;;;11.00;99.90;;;;;;5033408;28;20460;-73
2024/01/24 12:23:08;;;;;;;14.03;4.10;;;11.00;99.90;;;;;;5032476;28;20504;-73
2024/01/24 12:25:34;;;;;;;17.30;4.33;;;11.00;99.90;;;;;;5032768;28;21237;-72
2024/01/24 12:28:01;;;;;;;15.87;4.70;;;11.00;99.90;;;;;;5032858;28;20483;-73
2024/01/24 12:30:32;;;;;;;13.63;4.67;;;11.00;99.90;;;;;;5014082;28;20687;-71
2024/01/24 12:32:59;;;;;;;12.00;3.57;;;11.00;99.90;;;;;;5033150;28;20907;-72
2024/01/24 12:35:26;;;;;;;19.03;4.93;;;10.90;99.90;;;;;;5035419;28;20524;-73
2024/01/24 12:37:52;;;;;;;14.87;3.80;;;10.90;99.90;;;;;;5036259;28;20798;-72
2024/01/24 12:40:18;;;;;;;15.50;4.30;;;11.00;99.90;;;;;;5036225;28;20432;-72